Time;durP1;ratioP1;P1;durP2;ratioP2;P2;SDS_P1;SDS_P2;PMS_P1;PMS_P2;Temp;Humidity;BMP_temperature;BMP_pressure;BME280_temperature;BME280_humidity;BME280_pressure;Samples;Min_cycle;Max_cycle;Signal;HPM_P1;HPM_P2
2022/06/12 00:00:46;;;;;;;;;;;;;;;15.56;76.61;102172.72;5072849;28;19968;-32
2022/06/12 00:03:12;;;;;;;;;;;;;;;15.53;77.13;102173.97;5072382;28;19928;-33
2022/06/12 00:05:38;;;;;;;;;;;;;;;15.51;77.52;102164.31;5071661;28;19920;-33
2022/06/12 00:08:05;;;;;;;;;;;;;;;15.50;77.72;102162.63;5071860;28;19947;-32
2022/06/12 00:10:30;;;;;;;;;;;;;;;15.46;78.09;102166.72;5072259;28;19932;-32
2022/06/12 00:12:55;;;;;;;;;;;;;;;15.44;78.66;102166.91;5073775;28;20013;-31
2022/06/12 00:15:23;;;;;;;;;;;;;;;15.42;78.94;102162.69;5072074;28;19913;-30
2022/06/12 00:17:48;;;;;;;;;;;;;;;15.40;79.52;102157.44;5072881;28;19941;-33
2022/06/12 00:20:15;;;;;;;;;;;;;;;15.45;79.70;102148.75;5071465;28;19928;-33
2022/06/12 00:22:40;;;;;;;;;;;;;;;15.45;79.63;102155.00;5071044;28;19921;-32
2022/06/12 00:25:08;;;;;;;;;;;;;;;15.45;79.70;102152.31;5071429;28;19917;-32
2022/06/12 00:27:34;;;;;;;;;;;;;;;15.44;79.93;102158.75;5071646;28;19943;-32
2022/06/12 00:29:59;;;;;;;;;;;;;;;15.40;80.23;102162.00;5071619;28;19908;-33
2022/06/12 00:32:27;;;;;;;;;;;;;;;15.39;80.58;102161.19;5071174;28;19920;-33
2022/06/12 00:34:52;;;;;;;;;;;;;;;15.37;80.86;102153.22;5071039;28;19921;-32
2022/06/12 00:37:18;;;;;;;;;;;;;;;15.34;81.21;102152.75;5071545;28;19928;-31
2022/06/12 00:39:44;;;;;;;;;;;;;;;15.34;81.76;102156.28;5070307;28;19920;-32
2022/06/12 00:42:19;;;;;;;;;;;;;;;15.33;81.86;102151.91;5071478;28;19917;-32
2022/06/12 00:44:45;;;;;;;;;;;;;;;15.29;82.12;102147.00;5072153;28;19917;-31
2022/06/12 00:47:11;;;;;;;;;;;;;;;15.26;82.43;102145.50;5071635;28;19916;-34
2022/06/12 00:49:39;;;;;;;;;;;;;;;15.27;82.55;102146.34;5071364;28;19920;-33
2022/06/12 00:52:14;;;;;;;;;;;;;;;15.28;82.84;102150.75;5073209;28;19934;-33
2022/06/12 00:54:40;;;;;;;;;;;;;;;15.26;82.75;102152.81;5075948;28;19928;-31
2022/06/12 00:57:06;;;;;;;;;;;;;;;15.26;82.81;102161.78;5074685;28;19940;-33
2022/06/12 00:59:43;;;;;;;;;;;;;;;15.25;82.92;102149.25;5075131;28;19912;-32
2022/06/12 01:02:09;;;;;;;;;;;;;;;15.24;82.93;102158.41;5075025;28;19921;-33
2022/06/12 01:07:20;;;;;;;;;;;;;;;15.23;83.10;102159.44;5074938;28;19947;-32
2022/06/12 01:09:46;;;;;;;;;;;;;;;15.21;82.99;102164.19;5075065;28;19921;-33
2022/06/12 01:12:13;;;;;;;;;;;;;;;15.22;82.83;102162.31;5075782;28;19952;-32
2022/06/12 01:14:52;;;;;;;;;;;;;;;15.21;82.84;102156.06;5075602;28;19909;-33
2022/06/12 01:17:18;;;;;;;;;;;;;;;15.24;82.89;102147.53;5075670;28;19917;-32
2022/06/12 01:19:49;;;;;;;;;;;;;;;15.25;82.84;102145.72;5073043;28;19921;-32
2022/06/12 01:22:20;;;;;;;;;;;;;;;15.25;82.86;102148.41;5073782;28;19960;-33
2022/06/12 01:24:45;;;;;;;;;;;;;;;15.25;82.66;102148.41;5074968;28;19925;-33
2022/06/12 01:27:18;;;;;;;;;;;;;;;15.22;82.58;102146.03;5075927;28;19971;-32
2022/06/12 01:29:51;;;;;;;;;;;;;;;15.23;82.52;102147.75;5074637;28;19935;-32
2022/06/12 01:32:34;;;;;;;;;;;;;;;15.21;82.53;102152.50;5075018;28;20034;-32
2022/06/12 01:35:06;;;;;;;;;;;;;;;15.24;82.62;102157.56;5074965;28;19921;-34
2022/06/12 01:37:40;;;;;;;;;;;;;;;15.24;82.45;102147.53;5074615;28;19904;-32
2022/06/12 01:40:18;;;;;;;;;;;;;;;15.23;82.70;102148.59;5074813;28;19944;-32
2022/06/12 01:42:49;;;;;;;;;;;;;;;15.22;82.83;102157.75;5073606;28;19935;-32
2022/06/12 01:45:19;;;;;;;;;;;;;;;15.22;83.09;102155.03;5074554;28;19965;-32
2022/06/12 01:47:51;;;;;;;;;;;;;;;15.24;83.00;102152.13;5074483;28;19920;-31
2022/06/12 01:50:25;;;;;;;;;;;;;;;15.24;83.19;102146.72;5076243;28;19955;-31
2022/06/12 01:52:53;;;;;;;;;;;;;;;15.24;83.40;102147.53;5074818;28;19951;-32
2022/06/12 01:55:33;;;;;;;;;;;;;;;15.24;83.53;102144.84;5075358;28;19915;-32
2022/06/12 01:58:01;;;;;;;;;;;;;;;15.24;83.75;102152.97;5075223;28;19984;-32
2022/06/12 02:00:26;;;;;;;;;;;;;;;15.26;84.00;102160.94;5074125;28;19920;-32
2022/06/12 02:03:04;;;;;;;;;;;;;;;15.26;83.99;102150.09;5074633;28;19925;-31
2022/06/12 02:05:50;;;;;;;;;;;;;;;15.26;84.03;102147.38;5074116;28;19921;-32
2022/06/12 02:08:17;;;;;;;;;;;;;;;15.26;84.22;102139.25;5073756;28;19948;-32
2022/06/12 02:10:57;;;;;;;;;;;;;;;15.27;84.48;102138.19;5072170;28;19995;-33
2022/06/12 02:13:27;;;;;;;;;;;;;;;15.27;84.64;102140.91;5073894;28;19947;-32
2022/06/12 02:15:52;;;;;;;;;;;;;;;15.26;84.59;102139.25;5072488;28;19944;-32
2022/06/12 02:18:17;;;;;;;;;;;;;;;15.23;84.79;102148.59;5073628;28;19916;-33
2022/06/12 02:20:44;;;;;;;;;;;;;;;15.23;84.65;102145.88;5073755;28;19913;-31
2022/06/12 02:23:14;;;;;;;;;;;;;;;15.24;84.78;102150.25;5073327;28;19975;-32
2022/06/12 02:25:40;;;;;;;;;;;;;;;15.22;84.88;102155.03;5072467;28;19943;-31
2022/06/12 02:28:13;;;;;;;;;;;;;;;15.21;84.98;102152.50;5073671;28;19923;-32
2022/06/12 02:30:40;;;;;;;;;;;;;;;15.21;84.89;102147.06;5072771;28;19921;-32
2022/06/12 02:33:05;;;;;;;;;;;;;;;15.19;85.22;102155.38;5072151;28;19908;-32
2022/06/12 02:35:33;;;;;;;;;;;;;;;15.15;85.36;102149.47;5072919;28;19937;-33
2022/06/12 02:38:02;;;;;;;;;;;;;;;15.17;85.78;102151.19;5070916;28;19920;-32
2022/06/12 02:40:32;;;;;;;;;;;;;;;15.15;85.67;102151.34;5072542;28;19909;-32
2022/06/12 02:42:58;;;;;;;;;;;;;;;15.13;85.73;102146.09;5072878;28;19908;-32
2022/06/12 02:45:25;;;;;;;;;;;;;;;15.11;85.94;102141.88;5073418;28;19970;-31
2022/06/12 02:47:51;;;;;;;;;;;;;;;15.12;85.88;102140.88;5072926;28;19920;-32
2022/06/12 02:50:16;;;;;;;;;;;;;;;15.10;85.94;102141.03;5074060;28;19928;-32
2022/06/12 02:53:11;;;;;;;;;;;;;;;15.10;86.12;102145.63;5074221;28;19935;-32
2022/06/12 02:55:36;;;;;;;;;;;;;;;15.09;85.96;102127.69;5071981;28;19921;-32
2022/06/12 02:58:12;;;;;;;;;;;;;;;15.08;85.80;102137.66;5072918;28;19979;-31
2022/06/12 03:00:41;;;;;;;;;;;;;;;15.09;85.78;102138.53;5072568;28;19928;-32
2022/06/12 03:03:15;;;;;;;;;;;;;;;15.07;85.60;102140.56;5072968;28;19978;-34
2022/06/12 03:05:42;;;;;;;;;;;;;;;15.07;85.58;102137.88;5073932;28;19940;-32
2022/06/12 03:08:16;;;;;;;;;;;;;;;15.07;85.87;102146.00;5073581;28;19921;-31
2022/06/12 03:10:50;;;;;;;;;;;;;;;15.05;85.53;102142.59;5072873;28;19924;-32
2022/06/12 03:13:16;;;;;;;;;;;;;;;15.04;85.40;102143.66;5073506;28;19921;-31
2022/06/12 03:15:44;;;;;;;;;;;;;;;15.03;85.46;102140.06;5073210;28;19913;-32
2022/06/12 03:18:13;;;;;;;;;;;;;;;15.02;85.31;102138.41;5073493;28;19917;-30
2022/06/12 03:21:05;;;;;;;;;;;;;;;15.00;85.40;102140.44;5072524;28;19948;-33
2022/06/12 03:23:31;;;;;;;;;;;;;;;14.99;85.34;102144.19;5073316;28;19927;-32
2022/06/12 03:25:59;;;;;;;;;;;;;;;15.01;85.11;102143.97;5073699;28;19948;-33
2022/06/12 03:28:34;;;;;;;;;;;;;;;15.01;85.32;102141.28;5073267;28;19924;-33
2022/06/12 03:31:02;;;;;;;;;;;;;;;15.01;84.81;102141.28;5072760;28;20380;-31
2022/06/12 03:33:27;;;;;;;;;;;;;;;14.99;84.57;102146.88;5070746;28;19921;-29
2022/06/12 03:35:54;;;;;;;;;;;;;;;14.99;84.32;102149.59;5071611;28;19977;-32
2022/06/12 03:38:35;;;;;;;;;;;;;;;14.99;84.16;102149.59;5071574;28;19916;-31
2022/06/12 03:41:04;;;;;;;;;;;;;;;14.99;84.08;102146.88;5068695;28;19928;-32
2022/06/12 03:43:49;;;;;;;;;;;;;;;15.00;83.94;102145.84;5068787;28;19931;-32
2022/06/12 03:46:20;;;;;;;;;;;;;;;15.02;83.59;102149.25;5068950;28;19997;-31
2022/06/12 03:48:49;;;;;;;;;;;;;;;15.04;83.20;102140.94;5070022;28;19992;-33
2022/06/12 03:51:20;;;;;;;;;;;;;;;15.05;82.63;102148.88;5070885;28;19935;-32
2022/06/12 03:53:47;;;;;;;;;;;;;;;15.05;82.27;102148.03;5070313;28;19909;-32
2022/06/12 03:59:21;;;;;;;;;;;;;;;15.10;81.77;102145.63;5070207;28;19978;-32
2022/06/12 04:01:46;;;;;;;;;;;;;;;15.12;82.00;102149.00;5069933;28;19909;-32
2022/06/12 04:04:12;;;;;;;;;;;;;;;15.16;81.63;102155.75;5069573;28;19931;-33
2022/06/12 04:06:37;;;;;;;;;;;;;;;15.20;81.39;102157.09;5069133;28;19928;-32
2022/06/12 04:09:04;;;;;;;;;;;;;;;15.23;81.22;102162.16;5069684;28;20003;-31
2022/06/12 04:11:30;;;;;;;;;;;;;;;15.24;80.61;102157.56;5069371;28;19921;-32
2022/06/12 04:13:55;;;;;;;;;;;;;;;15.28;80.65;102153.47;5070248;28;19924;-32
2022/06/12 04:16:26;;;;;;;;;;;;;;;15.32;80.37;102150.22;5069788;28;19976;-32
2022/06/12 04:18:51;;;;;;;;;;;;;;;15.37;80.31;102153.22;5070003;28;19916;-33
2022/06/12 04:21:16;;;;;;;;;;;;;;;15.42;79.85;102158.09;5070508;28;19984;-33
2022/06/12 04:23:49;;;;;;;;;;;;;;;15.50;79.72;102157.19;5070537;28;19928;-32
2022/06/12 04:26:22;;;;;;;;;;;;;;;15.55;79.45;102166.47;5073178;28;19917;-33
2022/06/12 04:28:53;;;;;;;;;;;;;;;15.63;79.24;102154.69;5073468;28;19951;-31
2022/06/12 04:31:19;;;;;;;;;;;;;;;15.70;78.09;102163.00;5074400;28;19917;-33
2022/06/12 04:34:04;;;;;;;;;;;;;;;15.73;78.02;102165.34;5074702;28;19916;-33
2022/06/12 04:36:30;;;;;;;;;;;;;;;15.74;78.07;102164.31;5073928;28;19952;-33
2022/06/12 04:38:55;;;;;;;;;;;;;;;15.78;77.79;102166.47;5074800;28;19932;-32
2022/06/12 04:41:21;;;;;;;;;;;;;;;15.85;77.26;102163.88;5074868;28;19927;-32
2022/06/12 04:43:46;;;;;;;;;;;;;;;15.87;76.15;102174.53;5075351;28;19925;-33
2022/06/12 04:46:11;;;;;;;;;;;;;;;15.92;74.53;102172.09;5075567;28;19987;-32
2022/06/12 04:48:38;;;;;;;;;;;;;;;15.99;73.97;102179.34;5073700;28;19920;-32
2022/06/12 04:51:04;;;;;;;;;;;;;;;16.07;73.20;102174.84;5072071;28;19924;-33
2022/06/12 04:53:29;;;;;;;;;;;;;;;16.12;72.28;102172.44;5074001;28;20274;-32
2022/06/12 04:55:54;;;;;;;;;;;;;;;16.13;71.50;102177.66;5072970;28;19917;-31
2022/06/12 04:58:20;;;;;;;;;;;;;;;16.14;72.10;102173.06;5074970;28;19958;-32
2022/06/12 05:00:45;;;;;;;;;;;;;;;16.21;71.83;102174.84;5066831;28;20182;-33
2022/06/12 05:03:12;;;;;;;;;;;;;;;16.27;71.49;102173.25;5072039;28;19924;-32
2022/06/12 05:05:37;;;;;;;;;;;;;;;16.34;71.28;102181.50;5073633;28;19920;-31
2022/06/12 05:08:02;;;;;;;;;;;;;;;16.37;70.32;102178.41;5074367;28;19921;-31
2022/06/12 05:10:28;;;;;;;;;;;;;;;16.39;70.17;102179.91;5072696;28;19952;-32
2022/06/12 05:12:53;;;;;;;;;;;;;;;16.53;70.13;102175.50;5054840;28;19975;-33
2022/06/12 05:15:18;;;;;;;;;;;;;;;16.59;70.02;102184.78;5061803;28;19905;-32
2022/06/12 05:17:45;;;;;;;;;;;;;;;16.69;69.08;102182.59;5069538;28;19947;-31
2022/06/12 05:20:13;;;;;;;;;;;;;;;16.71;68.18;102188.69;5072061;28;19924;-31
2022/06/12 05:22:38;;;;;;;;;;;;;;;16.65;68.66;102190.31;5068533;28;20048;-32
2022/06/12 05:25:04;;;;;;;;;;;;;;;16.68;68.66;102183.63;5052817;28;19945;-32
2022/06/12 05:27:31;;;;;;;;;;;;;;;16.68;66.98;102183.63;5072513;28;19951;-34
2022/06/12 05:29:56;;;;;;;;;;;;;;;16.76;67.18;102180.81;5072787;28;19921;-32
2022/06/12 05:32:22;;;;;;;;;;;;;;;16.86;66.99;102186.00;5073168;28;19920;-32
2022/06/12 05:34:47;;;;;;;;;;;;;;;16.92;66.91;102184.38;5074517;28;19924;-33
2022/06/12 05:37:12;;;;;;;;;;;;;;;17.02;66.61;102184.91;5074028;28;19909;-32
2022/06/12 05:39:38;;;;;;;;;;;;;;;17.13;66.55;102191.72;5074360;28;19932;-33
2022/06/12 05:42:03;;;;;;;;;;;;;;;17.22;66.34;102201.44;5073836;28;19936;-32
2022/06/12 05:44:29;;;;;;;;;;;;;;;17.28;66.63;102198.81;5073463;28;19905;-32
2022/06/12 05:46:54;;;;;;;;;;;;;;;17.40;65.32;102203.72;5072751;28;19971;-33
2022/06/12 05:49:19;;;;;;;;;;;;;;;17.43;65.39;102204.19;5072514;28;19928;-32
2022/06/12 05:51:44;;;;;;;;;;;;;;;17.46;65.09;102209.25;5073384;28;19909;-32
2022/06/12 05:54:10;;;;;;;;;;;;;;;17.55;64.07;102213.50;5073960;28;19979;-30
2022/06/12 05:56:35;;;;;;;;;;;;;;;17.46;63.14;102203.81;5073587;28;20000;-33
2022/06/12 05:59:01;;;;;;;;;;;;;;;17.38;63.25;102206.66;5072281;28;19968;-33
2022/06/12 06:01:27;;;;;;;;;;;;;;;17.33;63.38;102201.78;5072550;28;19909;-34
2022/06/12 06:03:52;;;;;;;;;;;;;;;17.36;63.52;102208.72;5073225;28;19909;-33
2022/06/12 06:06:20;;;;;;;;;;;;;;;17.42;63.28;102207.09;5072829;28;19905;-33
2022/06/12 06:08:46;;;;;;;;;;;;;;;17.48;64.22;102217.22;5072621;28;19978;-31
2022/06/12 06:11:11;;;;;;;;;;;;;;;17.58;64.89;102217.72;5072687;28;19924;-31
2022/06/12 06:13:37;;;;;;;;;;;;;;;17.62;63.14;102213.59;5071743;28;19921;-31
2022/06/12 06:16:02;;;;;;;;;;;;;;;17.66;63.23;102220.31;5051980;28;20280;-31
2022/06/12 06:18:27;;;;;;;;;;;;;;;17.78;63.38;102228.81;5053189;28;19921;-30
2022/06/12 06:20:52;;;;;;;;;;;;;;;17.98;63.54;102224.41;5064027;28;19943;-30
2022/06/12 06:23:18;;;;;;;;;;;;;;;18.19;62.97;102226.25;5072371;28;20008;-31
2022/06/12 06:25:43;;;;;;;;;;;;;;;18.54;62.22;102218.06;5072846;28;19940;-31
2022/06/12 06:28:09;;;;;;;;;;;;;;;18.71;60.69;102224.03;5073445;28;19905;-32
2022/06/12 06:30:35;;;;;;;;;;;;;;;18.95;61.09;102228.16;5073241;28;19952;-31
2022/06/12 06:33:00;;;;;;;;;;;;;;;19.34;60.57;102232.06;5073411;28;20019;-30
2022/06/12 06:35:25;;;;;;;;;;;;;;;19.61;58.28;102226.63;5072213;28;19921;-32
2022/06/12 06:37:51;;;;;;;;;;;;;;;19.82;58.05;102231.09;5072506;28;19936;-32
2022/06/12 06:40:17;;;;;;;;;;;;;;;20.02;57.79;102228.38;5072828;28;19924;-34
2022/06/12 06:42:43;;;;;;;;;;;;;;;20.14;57.04;102240.31;5072254;28;19984;-34
2022/06/12 06:47:52;;;;;;;;;;;;;;;20.18;56.41;102244.34;5072361;28;19987;-33
2022/06/12 06:50:18;;;;;;;;;;;;;;;20.23;55.35;102241.81;5072505;28;19909;-32
2022/06/12 06:52:43;;;;;;;;;;;;;;;20.32;55.91;102247.88;5072946;28;19917;-31
2022/06/12 06:55:09;;;;;;;;;;;;;;;20.46;54.74;102251.44;5071589;28;19923;-32
2022/06/12 06:57:35;;;;;;;;;;;;;;;20.58;54.98;102257.97;5072434;28;19905;-32
2022/06/12 07:00:01;;;;;;;;;;;;;;;20.98;54.36;102252.34;5072447;28;20092;-31
2022/06/12 07:02:26;;;;;;;;;;;;;;;21.52;53.99;102253.78;5072959;28;19958;-32
2022/06/12 07:04:51;;;;;;;;;;;;;;;22.26;51.01;102265.03;5073142;28;20074;-32
2022/06/12 07:07:16;;;;;;;;;;;;;;;22.93;47.53;102268.75;5072766;28;19925;-33
2022/06/12 07:09:42;;;;;;;;;;;;;;;23.71;46.23;102267.06;5073020;28;19916;-32
2022/06/12 07:12:08;;;;;;;;;;;;;;;24.16;45.00;102263.81;5072584;28;19908;-31
2022/06/12 07:14:33;;;;;;;;;;;;;;;24.56;43.28;102263.09;5072964;28;20340;-31
2022/06/12 07:16:58;;;;;;;;;;;;;;;24.86;43.04;102270.38;5072125;28;19905;-32
2022/06/12 07:19:24;;;;;;;;;;;;;;;25.56;40.89;102264.59;5072837;28;19979;-32
2022/06/12 07:21:49;;;;;;;;;;;;;;;25.35;41.74;102262.53;5071393;28;19921;-32
2022/06/12 07:24:14;;;;;;;;;;;;;;;25.89;41.03;102263.00;5071643;28;20261;-31
2022/06/12 07:26:41;;;;;;;;;;;;;;;26.28;40.89;102252.03;5068922;28;19930;-31
2022/06/12 07:29:06;;;;;;;;;;;;;;;26.22;39.82;102258.53;5069733;28;20042;-31
2022/06/12 07:31:31;;;;;;;;;;;;;;;26.07;39.94;102264.66;5070102;28;19920;-32
2022/06/12 07:33:57;;;;;;;;;;;;;;;25.86;39.19;102263.50;5069952;28;19921;-33
2022/06/12 07:36:22;;;;;;;;;;;;;;;26.06;39.00;102269.31;5068302;28;19943;-32
2022/06/12 07:38:48;;;;;;;;;;;;;;;25.76;40.18;102258.59;5067278;28;19921;-32
2022/06/12 07:41:13;;;;;;;;;;;;;;;25.57;40.77;102257.19;5068723;28;19921;-33
2022/06/12 07:43:39;;;;;;;;;;;;;;;25.95;41.15;102261.97;5071491;28;19924;-33
2022/06/12 07:46:05;;;;;;;;;;;;;;;26.28;38.23;102263.91;5071198;28;19932;-33
2022/06/12 07:48:31;;;;;;;;;;;;;;;25.95;38.81;102261.16;5070063;28;19973;-33
2022/06/12 07:50:57;;;;;;;;;;;;;;;25.26;40.20;102262.13;5067445;28;19948;-32
2022/06/12 07:53:22;;;;;;;;;;;;;;;25.49;41.42;102269.44;5068060;28;19932;-32
2022/06/12 07:55:48;;;;;;;;;;;;;;;25.70;40.94;102267.88;5064021;28;19916;-32
2022/06/12 07:58:14;;;;;;;;;;;;;;;25.81;40.93;102274.41;5049598;28;19921;-32
2022/06/12 08:00:40;;;;;;;;;;;;;;;25.47;40.75;102274.34;5058728;28;19924;-31
2022/06/12 08:03:05;;;;;;;;;;;;;;;26.04;41.13;102282.56;5070810;28;19917;-31
2022/06/12 08:05:31;;;;;;;;;;;;;;;26.40;38.46;102271.22;5070556;28;20483;-32
2022/06/12 08:07:56;;;;;;;;;;;;;;;27.16;36.56;102279.72;5069994;28;19931;-31
2022/06/12 08:10:21;;;;;;;;;;;;;;;26.48;38.32;102270.78;5071980;28;19927;-31
2022/06/12 08:12:47;;;;;;;;;;;;;;;26.10;39.51;102277.13;5071305;28;20056;-32
2022/06/12 08:15:17;;;;;;;;;;;;;;;26.31;38.49;102281.03;5070308;28;19921;-31
2022/06/12 08:17:42;;;;;;;;;;;;;;;26.91;38.16;102275.56;5070864;28;20213;-33
2022/06/12 08:20:28;;;;;;;;;;;;;;;27.05;37.57;102284.28;5071631;28;19932;-32
2022/06/12 08:22:55;;;;;;;;;;;;;;;27.11;37.69;102282.41;5074699;28;19921;-33
2022/06/12 08:25:20;;;;;;;;;;;;;;;27.37;37.58;102280.81;5070105;28;19921;-33
2022/06/12 08:27:46;;;;;;;;;;;;;;;27.14;37.30;102285.47;5064412;28;19928;-32
2022/06/12 08:30:11;;;;;;;;;;;;;;;27.50;36.31;102274.84;5064910;28;19956;-32
2022/06/12 08:32:36;;;;;;;;;;;;;;;27.70;35.96;102279.75;5072068;28;19939;-32
2022/06/12 08:35:05;;;;;;;;;;;;;;;27.28;35.76;102277.69;5071514;28;19976;-33
2022/06/12 08:37:32;;;;;;;;;;;;;;;27.13;37.09;102280.22;5069833;28;19924;-33
2022/06/12 08:39:58;;;;;;;;;;;;;;;26.52;37.01;102273.94;5071877;28;19964;-33
2022/06/12 08:42:25;;;;;;;;;;;;;;;26.79;38.11;102274.84;5071671;28;19928;-31
2022/06/12 08:45:00;;;;;;;;;;;;;;;27.31;37.66;102270.78;5070691;28;19944;-32
2022/06/12 08:47:27;;;;;;;;;;;;;;;27.95;35.33;102270.03;5070805;28;19921;-32
2022/06/12 08:50:11;;;;;;;;;;;;;;;27.38;36.76;102267.81;5071446;28;19925;-33
2022/06/12 08:52:45;;;;;;;;;;;;;;;27.36;37.40;102263.38;5071895;28;19948;-33
2022/06/12 08:55:14;;;;;;;;;;;;;;;26.24;37.98;102267.41;5072153;28;19975;-33
2022/06/12 08:57:40;;;;;;;;;;;;;;;26.39;39.51;102269.56;5071006;28;19936;-31
2022/06/12 09:00:11;;;;;;;;;;;;;;;27.11;37.64;102263.06;5072138;28;20039;-32
2022/06/12 09:02:36;;;;;;;;;;;;;;;27.54;37.03;102258.56;5072139;28;19967;-33
2022/06/12 09:05:03;;;;;;;;;;;;;;;28.06;36.59;102252.41;5072152;28;19904;-34
2022/06/12 09:07:38;;;;;;;;;;;;;;;28.24;35.60;102263.03;5071117;28;19920;-32
2022/06/12 09:10:06;;;;;;;;;;;;;;;28.53;35.16;102262.69;5071198;28;19921;-32
2022/06/12 09:12:50;;;;;;;;;;;;;;;28.76;34.25;102260.59;5072653;28;19920;-33
2022/06/12 09:15:47;;;;;;;;;;;;;;;29.00;33.29;102264.56;5073826;28;19967;-32
2022/06/12 09:18:17;;;;;;;;;;;;;;;29.28;32.23;102259.66;5073366;28;19997;-33
2022/06/12 09:21:01;;;;;;;;;;;;;;;29.16;32.07;102267.44;5073060;28;19921;-33
2022/06/12 09:23:32;;;;;;;;;;;;;;;28.57;33.51;102271.28;5073630;28;19929;-32
2022/06/12 09:26:05;;;;;;;;;;;;;;;28.23;33.63;102269.69;5074156;28;19998;-31
2022/06/12 09:28:49;;;;;;;;;;;;;;;27.89;35.46;102266.41;5074050;28;19920;-33
2022/06/12 09:31:32;;;;;;;;;;;;;;;26.72;35.83;102260.38;5074635;28;20276;-32
2022/06/12 09:34:07;;;;;;;;;;;;;;;27.36;36.21;102262.56;5074489;28;19946;-33
2022/06/12 09:36:35;;;;;;;;;;;;;;;26.74;37.02;102254.59;5074041;28;19947;-33
2022/06/12 09:39:06;;;;;;;;;;;;;;;26.24;38.71;102261.88;5076534;28;19921;-33
2022/06/12 09:41:31;;;;;;;;;;;;;;;27.40;35.70;102260.09;5076040;28;20005;-33
2022/06/12 09:44:06;;;;;;;;;;;;;;;27.78;35.30;102265.44;5075646;28;19920;-33
2022/06/12 09:46:58;;;;;;;;;;;;;;;28.47;33.64;102274.84;5075468;28;19916;-33
2022/06/12 09:49:23;;;;;;;;;;;;;;;26.91;34.78;102264.50;5076687;28;19943;-32
2022/06/12 09:52:08;;;;;;;;;;;;;;;26.98;34.85;102260.69;5076061;28;19908;-33
2022/06/12 09:54:33;;;;;;;;;;;;;;;26.52;35.55;102265.66;5057167;28;19909;-33
2022/06/12 09:57:04;;;;;;;;;;;;;;;26.19;35.79;102264.56;5070214;28;19939;-33
2022/06/12 09:59:34;;;;;;;;;;;;;;;24.74;37.37;102265.69;5075755;28;20000;-33
2022/06/12 10:02:00;;;;;;;;;;;;;;;25.38;38.25;102268.41;5076044;28;19916;-33
2022/06/12 10:04:43;;;;;;;;;;;;;;;25.96;37.59;102266.44;5075289;28;20342;-33
2022/06/12 10:07:13;;;;;;;;;;;;;;;26.08;36.51;102273.78;5074643;28;19939;-32
2022/06/12 10:09:41;;;;;;;;;;;;;;;26.59;35.19;102260.75;5073821;28;20360;-33
2022/06/12 10:12:17;;;;;;;;;;;;;;;27.21;33.73;102265.97;5074663;28;19987;-33
2022/06/12 10:14:52;;;;;;;;;;;;;;;27.23;34.91;102277.63;5074605;28;19921;-34
2022/06/12 10:17:24;;;;;;;;;;;;;;;27.76;32.62;102277.88;5074356;28;19913;-34
2022/06/12 10:19:49;;;;;;;;;;;;;;;28.31;31.82;102267.53;5072841;28;19917;-31
2022/06/12 10:22:33;;;;;;;;;;;;;;;27.90;32.65;102278.28;5073449;28;20560;-33
2022/06/12 10:24:59;;;;;;;;;;;;;;;27.31;33.52;102287.38;5063455;28;19905;-34
2022/06/12 10:27:24;;;;;;;;;;;;;;;27.48;33.41;102270.69;5074809;28;19905;-33
2022/06/12 10:29:54;;;;;;;;;;;;;;;27.04;32.66;102279.00;5074632;28;19976;-32
2022/06/12 10:32:21;;;;;;;;;;;;;;;27.19;32.99;102279.22;5072369;28;19941;-32
2022/06/12 10:34:46;;;;;;;;;;;;;;;26.39;33.67;102275.91;5073980;28;19948;-33
2022/06/12 10:37:17;;;;;;;;;;;;;;;26.00;34.73;102277.78;5073873;28;19928;-34
2022/06/12 10:39:42;;;;;;;;;;;;;;;25.37;37.31;102274.16;5073850;28;20003;-34
2022/06/12 10:42:14;;;;;;;;;;;;;;;26.36;36.88;102272.84;5074305;28;19924;-32
2022/06/12 10:44:44;;;;;;;;;;;;;;;27.22;34.64;102275.94;5072812;28;19921;-33
2022/06/12 10:47:20;;;;;;;;;;;;;;;27.82;33.02;102278.78;5073767;28;20003;-33
2022/06/12 10:49:46;;;;;;;;;;;;;;;27.91;32.46;102274.41;5074549;28;19956;-34
2022/06/12 10:52:14;;;;;;;;;;;;;;;27.74;33.91;102266.22;5073315;28;19921;-33
2022/06/12 10:54:39;;;;;;;;;;;;;;;27.71;34.26;102272.28;5074837;28;20255;-34
2022/06/12 10:57:13;;;;;;;;;;;;;;;26.33;35.28;102276.94;5073980;28;19997;-33
2022/06/12 10:59:39;;;;;;;;;;;;;;;26.82;35.15;102268.78;5072473;28;19980;-33
2022/06/12 11:02:23;;;;;;;;;;;;;;;27.16;34.42;102274.19;5073908;28;19908;-32
2022/06/12 11:05:06;;;;;;;;;;;;;;;27.47;32.05;102263.50;5074674;28;19992;-33
2022/06/12 11:07:37;;;;;;;;;;;;;;;27.68;33.44;102259.81;5073724;28;19940;-34
2022/06/12 11:10:02;;;;;;;;;;;;;;;28.08;31.65;102258.50;5073470;28;19948;-32
2022/06/12 11:12:41;;;;;;;;;;;;;;;28.25;32.17;102266.63;5074959;28;19921;-31
2022/06/12 11:15:20;;;;;;;;;;;;;;;27.93;30.80;102263.91;5074698;28;19921;-33
2022/06/12 11:17:55;;;;;;;;;;;;;;;27.89;31.88;102266.41;5073807;28;19917;-34
2022/06/12 11:20:20;;;;;;;;;;;;;;;27.25;31.80;102266.28;5073326;28;20287;-33
2022/06/12 11:23:04;;;;;;;;;;;;;;;26.94;33.38;102260.41;5076216;28;19924;-34
2022/06/12 11:25:40;;;;;;;;;;;;;;;26.77;34.56;102260.44;5074165;28;19924;-32
2022/06/12 11:28:14;;;;;;;;;;;;;;;27.29;33.18;102265.50;5072911;28;19936;-33
2022/06/12 11:30:46;;;;;;;;;;;;;;;27.70;33.71;102268.69;5072187;28;19981;-33
2022/06/12 11:33:37;;;;;;;;;;;;;;;28.29;33.10;102270.56;5073683;28;19936;-33
2022/06/12 11:36:07;;;;;;;;;;;;;;;28.41;31.22;102262.88;5065050;28;20000;-33
2022/06/12 11:38:51;;;;;;;;;;;;;;;28.28;31.04;102257.81;5073595;28;19915;-32
2022/06/12 11:41:33;;;;;;;;;;;;;;;27.55;32.37;102258.31;5072699;28;19956;-32
2022/06/12 11:44:08;;;;;;;;;;;;;;;27.51;33.60;102264.63;5069233;28;19996;-32
2022/06/12 11:46:37;;;;;;;;;;;;;;;27.64;33.12;102257.84;5053864;28;20004;-32
2022/06/12 11:49:05;;;;;;;;;;;;;;;27.33;33.50;102258.38;5054101;28;19917;-32
2022/06/12 11:51:40;;;;;;;;;;;;;;;26.92;34.31;102257.03;5052861;28;19905;-33
2022/06/12 11:54:25;;;;;;;;;;;;;;;27.24;34.62;102248.03;5052157;28;19917;-33
2022/06/12 11:57:05;;;;;;;;;;;;;;;26.65;35.82;102257.00;5053689;28;19976;-32
2022/06/12 11:59:30;;;;;;;;;;;;;;;27.02;34.11;102248.06;5053567;28;20280;-32
2022/06/12 12:02:03;;;;;;;;;;;;;;;27.23;34.64;102263.81;5052980;28;19980;-33
2022/06/12 12:04:28;;;;;;;;;;;;;;;26.44;35.78;102250.31;5052789;28;20420;-33
2022/06/12 12:07:09;;;;;;;;;;;;;;;26.59;37.22;102245.00;5052792;28;19917;-32
2022/06/12 12:09:57;;;;;;;;;;;;;;;26.40;37.03;102254.66;5053763;28;19917;-34
2022/06/12 12:12:33;;;;;;;;;;;;;;;25.66;36.45;102239.13;5057893;28;19974;-34
2022/06/12 12:14:58;;;;;;;;;;;;;;;26.11;37.23;102246.50;5068975;28;19909;-32
2022/06/12 12:17:44;;;;;;;;;;;;;;;26.42;38.52;102252.50;5069719;28;19931;-33
2022/06/12 12:20:27;;;;;;;;;;;;;;;26.99;38.11;102246.66;5074258;28;19921;-32
2022/06/12 12:22:59;;;;;;;;;;;;;;;27.39;35.90;102250.16;5073623;28;19919;-34
2022/06/12 12:25:35;;;;;;;;;;;;;;;26.96;36.78;102241.59;5074367;28;19999;-34
2022/06/12 12:28:15;;;;;;;;;;;;;;;27.02;35.92;102234.25;5054767;28;19921;-34
2022/06/12 12:30:40;;;;;;;;;;;;;;;26.92;35.46;102234.94;5053173;28;19909;-33
2022/06/12 12:33:09;;;;;;;;;;;;;;;27.17;36.31;102237.19;5052945;28;19935;-34
2022/06/12 12:41:13;;;;;;;;;;;;;;;26.95;34.80;102245.47;5072890;28;19947;-34
2022/06/12 12:43:51;;;;;;;;;;;;;;;26.62;35.87;102238.16;5073075;28;19969;-33
2022/06/12 12:46:16;;;;;;;;;;;;;;;26.56;36.00;102241.94;5072125;28;19916;-33
2022/06/12 12:48:42;;;;;;;;;;;;;;;26.63;35.09;102242.59;5075990;28;20082;-32
2022/06/12 12:51:08;;;;;;;;;;;;;;;26.46;36.86;102239.84;5076811;28;19931;-32
2022/06/12 12:53:34;;;;;;;;;;;;;;;25.57;38.27;102235.13;5076076;28;19944;-32
2022/06/12 12:56:01;;;;;;;;;;;;;;;25.99;38.94;102243.84;5077357;28;19921;-32
2022/06/12 12:58:27;;;;;;;;;;;;;;;25.85;38.89;102237.00;5077091;28;19923;-32
2022/06/12 13:01:10;;;;;;;;;;;;;;;25.59;39.17;102232.94;5074829;28;19920;-32